createdAt,value
2023-07-09T00:00:20.450Z,94780.31
2023-07-09T00:03:12.139Z,94782.59
2023-07-09T00:05:40.731Z,94778.03
2023-07-09T00:08:27.802Z,94772.50
2023-07-09T00:10:57.363Z,94776.84
2023-07-09T00:13:27.577Z,94778.03
2023-07-09T00:16:02.765Z,94771.50
2023-07-09T00:18:31.126Z,94772.41
2023-07-09T00:21:00.405Z,94771.50
2023-07-09T00:23:29.034Z,94772.63
2023-07-09T00:25:59.755Z,94771.31
2023-07-09T00:28:28.117Z,94770.56
2023-07-09T00:30:56.565Z,94777.16
2023-07-09T00:33:29.349Z,94781.63
2023-07-09T00:35:57.883Z,94775.66
2023-07-09T00:38:26.012Z,94770.00
2023-07-09T00:41:07.143Z,94772.72
2023-07-09T00:43:37.550Z,94773.78
2023-07-09T00:46:37.753Z,94774.78
2023-07-09T00:49:10.336Z,94766.50
2023-07-09T00:51:43.381Z,94766.44
2023-07-09T00:54:38.169Z,94767.22
2023-07-09T00:57:19.695Z,94763.47
2023-07-09T00:59:52.980Z,94765.44
2023-07-09T01:02:25.585Z,94757.44
2023-07-09T01:05:02.093Z,94752.19
2023-07-09T01:07:35.898Z,94755.00
2023-07-09T01:10:04.548Z,94756.41
2023-07-09T01:12:36.359Z,94759.22
2023-07-09T01:15:06.271Z,94757.59
2023-07-09T01:17:35.558Z,94753.25
2023-07-09T01:20:04.899Z,94752.91
2023-07-09T01:22:33.921Z,94754.56
2023-07-09T01:25:08.351Z,94747.28
2023-07-09T01:27:44.118Z,94751.59
2023-07-09T01:30:24.560Z,94748.25
2023-07-09T01:32:58.774Z,94743.75
2023-07-09T01:35:28.044Z,94736.63
2023-07-09T01:37:57.382Z,94740.75
2023-07-09T01:40:31.937Z,94743.03
2023-07-09T01:43:07.606Z,94745.66
2023-07-09T01:45:38.266Z,94738.13
2023-07-09T01:48:09.417Z,94743.75
2023-07-09T01:50:40.373Z,94747.22
2023-07-09T01:53:10.046Z,94744.06
2023-07-09T01:55:40.988Z,94747.03
2023-07-09T01:58:12.500Z,94745.69
2023-07-09T02:00:42.815Z,94732.53
2023-07-09T02:03:12.928Z,94736.69
2023-07-09T02:05:42.192Z,94735.25
2023-07-09T02:08:10.509Z,94732.91
2023-07-09T02:10:38.569Z,94734.28
2023-07-09T02:13:07.021Z,94733.81
2023-07-09T02:15:35.838Z,94735.75
2023-07-09T02:18:04.655Z,94735.38
2023-07-09T02:20:52.674Z,94734.47
2023-07-09T02:23:21.895Z,94743.31
2023-07-09T02:25:49.834Z,94738.06
2023-07-09T02:28:18.139Z,94734.38
2023-07-09T02:30:46.647Z,94741.13
2023-07-09T02:33:15.088Z,94734.13
2023-07-09T02:35:43.961Z,94735.44
2023-07-09T02:38:12.324Z,94729.97
2023-07-09T02:40:40.578Z,94734.22
2023-07-09T02:43:08.931Z,94729.06
2023-07-09T02:45:37.181Z,94735.09
2023-07-09T02:48:05.910Z,94724.88
2023-07-09T02:50:39.805Z,94727.56
2023-07-09T02:53:08.312Z,94727.63
2023-07-09T02:55:36.604Z,94726.84
2023-07-09T02:58:05.071Z,94718.66
2023-07-09T03:00:34.922Z,94719.94
2023-07-09T03:03:04.038Z,94722.66
2023-07-09T03:05:32.823Z,94723.47
2023-07-09T03:08:01.177Z,94725.63
2023-07-09T03:10:30.395Z,94718.03
2023-07-09T03:12:58.967Z,94715.56
2023-07-09T03:15:26.930Z,94715.94
2023-07-09T03:17:55.230Z,94724.06
2023-07-09T03:20:23.350Z,94721.56
2023-07-09T03:22:51.713Z,94715.41
2023-07-09T03:25:20.137Z,94716.25
2023-07-09T03:27:50.032Z,94718.94
2023-07-09T03:30:18.131Z,94711.41
2023-07-09T03:32:47.148Z,94715.84
2023-07-09T03:35:16.958Z,94714.59
2023-07-09T03:37:45.303Z,94715.91
2023-07-09T03:40:25.163Z,94710.50
2023-07-09T03:42:53.926Z,94702.78
2023-07-09T03:45:21.920Z,94693.56
2023-07-09T03:47:50.312Z,94705.59
2023-07-09T03:50:18.862Z,94706.53
2023-07-09T03:52:47.126Z,94699.59
2023-07-09T03:55:15.636Z,94696.47
2023-07-09T03:57:44.167Z,94696.25
2023-07-09T04:00:12.928Z,94700.97
2023-07-09T04:02:47.195Z,94696.31
2023-07-09T04:05:15.987Z,94703.13
2023-07-09T04:07:44.280Z,94699.31
2023-07-09T04:10:12.924Z,94698.69
2023-07-09T04:12:41.869Z,94704.53
2023-07-09T04:15:14.250Z,94694.50
2023-07-09T04:17:44.878Z,94699.06
2023-07-09T04:20:14.117Z,94698.28
2023-07-09T04:22:42.533Z,94701.50
2023-07-09T04:25:11.913Z,94696.41
2023-07-09T04:27:40.822Z,94699.41
2023-07-09T04:30:16.384Z,94702.25
2023-07-09T04:32:45.827Z,94697.47
2023-07-09T04:35:15.866Z,94692.59
2023-07-09T04:37:44.512Z,94691.97
2023-07-09T04:40:14.340Z,94695.53
2023-07-09T04:42:42.976Z,94689.88
2023-07-09T04:45:12.933Z,94684.34
2023-07-09T04:47:41.940Z,94687.50
2023-07-09T04:50:10.761Z,94682.16
2023-07-09T04:52:39.032Z,94688.09
2023-07-09T04:55:09.110Z,94690.47
2023-07-09T04:57:40.922Z,94688.03
2023-07-09T05:00:11.861Z,94692.06
2023-07-09T05:02:40.586Z,94689.88
2023-07-09T05:05:09.074Z,94683.69
2023-07-09T05:07:37.883Z,94686.22
2023-07-09T05:10:08.094Z,94684.53
2023-07-09T05:12:36.319Z,94686.22
2023-07-09T05:15:04.646Z,94681.94
2023-07-09T05:17:33.751Z,94674.00
2023-07-09T05:20:01.641Z,94665.88
2023-07-09T05:22:30.325Z,94671.47
2023-07-09T05:24:58.132Z,94658.25
2023-07-09T05:27:26.362Z,94661.88
2023-07-09T05:29:57.436Z,94664.22
2023-07-09T05:32:25.959Z,94667.16
2023-07-09T05:34:53.931Z,94668.19
2023-07-09T05:37:22.184Z,94658.56
2023-07-09T05:39:50.302Z,94665.97
2023-07-09T05:42:18.746Z,94653.06
2023-07-09T05:44:47.434Z,94660.66
2023-07-09T05:47:15.967Z,94660.38
2023-07-09T05:49:44.058Z,94649.88
2023-07-09T05:52:12.469Z,94646.91
2023-07-09T05:54:40.339Z,94648.38
2023-07-09T05:57:10.059Z,94651.88
2023-07-09T05:59:38.121Z,94643.84
2023-07-09T06:02:12.177Z,94648.88
2023-07-09T06:04:40.736Z,94642.53
2023-07-09T06:07:11.210Z,94636.00
2023-07-09T06:09:39.265Z,94636.56
2023-07-09T06:12:08.440Z,94637.50
2023-07-09T06:14:37.193Z,94642.03
2023-07-09T06:17:05.835Z,94634.66
2023-07-09T06:19:33.980Z,94634.25
2023-07-09T06:22:02.415Z,94640.84
2023-07-09T06:24:30.421Z,94639.84
2023-07-09T06:26:58.842Z,94636.16
2023-07-09T06:29:27.803Z,94632.81
2023-07-09T06:31:56.125Z,94635.41
2023-07-09T06:34:24.581Z,94630.78
2023-07-09T06:36:53.357Z,94626.06
2023-07-09T06:39:21.182Z,94625.44
2023-07-09T06:41:50.035Z,94631.91
2023-07-09T06:44:38.108Z,94625.22
2023-07-09T06:47:06.764Z,94626.22
2023-07-09T06:49:34.818Z,94621.41
2023-07-09T06:52:03.922Z,94627.19
2023-07-09T06:54:34.585Z,94621.16
2023-07-09T06:57:02.925Z,94632.25
2023-07-09T06:59:31.232Z,94622.53
2023-07-09T07:02:00.520Z,94621.34
2023-07-09T07:04:29.011Z,94621.78
2023-07-09T07:06:58.211Z,94629.38
2023-07-09T07:09:26.203Z,94623.97
2023-07-09T07:11:54.413Z,94625.03
2023-07-09T07:14:22.404Z,94622.19
2023-07-09T07:16:51.568Z,94621.16
2023-07-09T07:19:19.485Z,94626.69
2023-07-09T07:21:47.928Z,94619.81
2023-07-09T07:24:15.948Z,94616.44
2023-07-09T07:26:44.190Z,94611.34
2023-07-09T07:29:13.568Z,94609.56
2023-07-09T07:31:41.883Z,94615.72
2023-07-09T07:34:09.853Z,94613.09
2023-07-09T07:36:42.262Z,94609.78
2023-07-09T07:39:11.451Z,94603.53
2023-07-09T07:41:39.724Z,94601.59
2023-07-09T07:44:07.705Z,94605.66
2023-07-09T07:46:37.986Z,94594.56
2023-07-09T07:49:06.136Z,94602.84
2023-07-09T07:51:35.339Z,94597.31
2023-07-09T07:54:03.758Z,94597.16
2023-07-09T07:56:32.221Z,94598.81
2023-07-09T07:59:02.702Z,94592.50
2023-07-09T08:01:40.293Z,94594.78
2023-07-09T08:04:16.051Z,94594.19
2023-07-09T08:06:44.617Z,94587.47
2023-07-09T08:09:12.781Z,94587.91
2023-07-09T08:11:41.091Z,94585.97
2023-07-09T08:14:09.166Z,94586.25
2023-07-09T08:16:37.636Z,94577.84
2023-07-09T08:19:05.814Z,94573.31
2023-07-09T08:21:34.396Z,94573.19
2023-07-09T08:24:04.702Z,94582.03
2023-07-09T08:26:34.097Z,94567.47
2023-07-09T08:29:02.504Z,94568.94
2023-07-09T08:31:30.830Z,94564.31
2023-07-09T08:33:58.881Z,94562.94
2023-07-09T08:36:29.655Z,94567.88
2023-07-09T08:38:58.790Z,94559.19
2023-07-09T08:41:46.416Z,94570.00
2023-07-09T08:44:24.490Z,94564.59
2023-07-09T08:47:01.670Z,94559.31
2023-07-09T08:49:56.429Z,94551.63
2023-07-09T08:52:36.945Z,94550.88
2023-07-09T08:55:13.322Z,94559.28
2023-07-09T08:57:49.921Z,94555.19
2023-07-09T09:00:57.826Z,94557.31
2023-07-09T09:04:14.086Z,94538.09
2023-07-09T09:06:49.203Z,94528.78
2023-07-09T09:09:33.980Z,94534.97
2023-07-09T09:12:14.316Z,94528.19
2023-07-09T09:14:53.915Z,94528.63
2023-07-09T09:17:22.495Z,94513.28
2023-07-09T09:20:00.877Z,94510.84
2023-07-09T09:22:38.024Z,94518.94
2023-07-09T09:25:28.656Z,94524.06
2023-07-09T09:27:56.978Z,94522.44
2023-07-09T09:30:27.157Z,94530.38
2023-07-09T09:33:04.433Z,94518.25
2023-07-09T09:35:38.944Z,94526.19
2023-07-09T09:38:21.242Z,94536.06
2023-07-09T09:40:50.334Z,94529.91
2023-07-09T09:43:22.502Z,94529.69
2023-07-09T09:45:51.613Z,94536.63
2023-07-09T09:48:38.845Z,94524.78
2023-07-09T09:51:07.826Z,94519.19
2023-07-09T09:53:41.392Z,94506.22
2023-07-09T09:56:19.630Z,94520.50
2023-07-09T09:58:55.021Z,94523.97
2023-07-09T10:01:32.394Z,94520.34
2023-07-09T10:04:02.456Z,94519.75
2023-07-09T10:06:34.027Z,94515.13
2023-07-09T10:09:17.378Z,94525.97
2023-07-09T10:11:50.335Z,94518.00
2023-07-09T10:14:29.948Z,94525.81
2023-07-09T10:17:25.585Z,94517.53
2023-07-09T10:20:15.038Z,94523.53
2023-07-09T10:26:17.100Z,94527.56
2023-07-09T10:29:00.852Z,94530.13
2023-07-09T10:31:47.592Z,94522.09
2023-07-09T10:35:02.604Z,94523.88
2023-07-09T10:37:55.811Z,94531.19
2023-07-09T10:40:34.959Z,94520.63
2023-07-09T10:43:06.504Z,94520.81
2023-07-09T10:45:42.420Z,94521.88
2023-07-09T10:48:13.855Z,94524.88
2023-07-09T10:50:45.748Z,94521.72
2023-07-09T10:53:39.066Z,94522.22
2023-07-09T10:56:10.819Z,94523.72
2023-07-09T10:58:50.679Z,94528.63
2023-07-09T11:01:27.226Z,94529.13
2023-07-09T11:04:01.979Z,94528.09
2023-07-09T11:06:39.808Z,94529.53
2023-07-09T11:09:19.236Z,94532.06
2023-07-09T11:11:52.475Z,94533.72
2023-07-09T11:14:42.261Z,94533.84
2023-07-09T11:17:19.139Z,94532.28
2023-07-09T11:19:50.079Z,94524.47
2023-07-09T11:22:24.014Z,94522.81
2023-07-09T11:25:10.995Z,94532.00
2023-07-09T11:27:52.760Z,94535.34
2023-07-09T11:30:27.739Z,94532.00
2023-07-09T11:33:10.341Z,94540.19
2023-07-09T11:35:52.846Z,94547.03
2023-07-09T11:38:25.139Z,94558.41
2023-07-09T11:40:55.768Z,94541.31
2023-07-09T11:43:47.771Z,94544.81
2023-07-09T11:46:25.740Z,94550.72
2023-07-09T11:48:59.435Z,94550.91
2023-07-09T11:51:46.863Z,94543.94
2023-07-09T11:54:20.312Z,94549.31
2023-07-09T11:56:59.294Z,94538.41
2023-07-09T11:59:28.464Z,94541.72
2023-07-09T12:02:22.555Z,94541.41
2023-07-09T12:04:52.501Z,94547.03
2023-07-09T12:07:24.627Z,94549.16
2023-07-09T12:09:52.988Z,94557.19
2023-07-09T12:12:29.987Z,94559.00
2023-07-09T12:14:58.339Z,94557.09
2023-07-09T12:17:31.835Z,94545.06
2023-07-09T12:20:05.620Z,94548.06
2023-07-09T12:22:34.228Z,94548.53
2023-07-09T12:25:02.830Z,94546.44
2023-07-09T12:27:38.890Z,94549.88
2023-07-09T12:30:14.638Z,94546.31
2023-07-09T12:32:47.798Z,94553.22
2023-07-09T12:35:17.891Z,94543.31
2023-07-09T12:37:48.313Z,94537.00
2023-07-09T12:40:22.285Z,94523.75
2023-07-09T12:42:50.994Z,94506.63
2023-07-09T12:45:21.788Z,94500.19
2023-07-09T12:47:50.977Z,94489.44
2023-07-09T12:50:34.128Z,94493.00
2023-07-09T12:53:16.679Z,94489.25
2023-07-09T12:55:47.834Z,94479.94
2023-07-09T12:58:22.388Z,94481.72
2023-07-09T13:00:53.149Z,94478.31
2023-07-09T13:03:28.457Z,94487.00
2023-07-09T13:06:05.437Z,94468.41
2023-07-09T13:08:44.336Z,94477.84
2023-07-09T13:11:22.526Z,94482.94
2023-07-09T13:14:04.455Z,94469.00
2023-07-09T13:16:39.773Z,94467.50
2023-07-09T13:19:07.799Z,94482.81
2023-07-09T13:21:38.919Z,94463.31
2023-07-09T13:24:29.292Z,94463.88
2023-07-09T13:27:00.810Z,94471.25
2023-07-09T13:29:29.391Z,94464.81
2023-07-09T13:31:58.701Z,94464.03
2023-07-09T13:34:29.234Z,94458.06
2023-07-09T13:37:00.155Z,94460.75
2023-07-09T13:39:29.237Z,94466.88
2023-07-09T13:41:58.044Z,94476.34
2023-07-09T13:44:29.316Z,94467.97
2023-07-09T13:46:57.730Z,94467.66
2023-07-09T13:49:28.786Z,94469.47
2023-07-09T13:52:00.781Z,94482.63
2023-07-09T13:54:41.733Z,94480.66
2023-07-09T13:57:15.569Z,94481.72
2023-07-09T13:59:46.848Z,94476.44
2023-07-09T14:02:21.160Z,94477.03
2023-07-09T14:04:49.553Z,94477.03
2023-07-09T14:07:46.153Z,94484.28
2023-07-09T14:10:19.436Z,94488.47
2023-07-09T14:12:48.794Z,94487.56
2023-07-09T14:15:22.091Z,94492.03
2023-07-09T14:17:50.327Z,94486.78
2023-07-09T14:20:19.382Z,94485.88
2023-07-09T14:22:49.180Z,94483.47
2023-07-09T14:25:22.367Z,94481.22
2023-07-09T14:27:55.231Z,94483.75
2023-07-09T14:30:28.365Z,94487.06
2023-07-09T14:32:59.322Z,94482.84
2023-07-09T14:35:28.201Z,94490.66
2023-07-09T14:37:56.818Z,94480.69
2023-07-09T14:40:51.237Z,94474.25
2023-07-09T14:43:19.737Z,94471.22
2023-07-09T14:45:51.062Z,94465.75
2023-07-09T14:48:22.469Z,94443.69
2023-07-09T14:50:52.453Z,94445.00
2023-07-09T14:53:28.811Z,94455.47
2023-07-09T14:55:58.596Z,94458.84
2023-07-09T14:58:27.902Z,94452.56
2023-07-09T15:00:56.315Z,94450.16
2023-07-09T15:03:27.320Z,94450.56
2023-07-09T15:05:55.918Z,94444.63
2023-07-09T15:08:26.888Z,94438.94
2023-07-09T15:10:56.986Z,94441.78
2023-07-09T15:13:35.962Z,94446.13
2023-07-09T15:16:06.064Z,94443.03
2023-07-09T15:18:38.060Z,94427.00
2023-07-09T15:21:07.025Z,94429.41
2023-07-09T15:23:41.087Z,94427.91
2023-07-09T15:26:15.836Z,94432.69
2023-07-09T15:28:44.697Z,94433.44
2023-07-09T15:31:13.486Z,94446.63
2023-07-09T15:33:41.631Z,94432.09
2023-07-09T15:36:13.374Z,94435.09
2023-07-09T15:38:43.368Z,94445.13
2023-07-09T15:41:16.219Z,94445.44
2023-07-09T15:43:45.596Z,94443.19
2023-07-09T15:46:22.744Z,94452.16
2023-07-09T15:48:53.416Z,94455.00
2023-07-09T15:51:23.041Z,94453.34
2023-07-09T15:53:51.341Z,94457.22
2023-07-09T15:56:31.222Z,94456.53
2023-07-09T15:59:01.195Z,94467.44
2023-07-09T16:01:29.882Z,94467.69
2023-07-09T16:04:04.058Z,94468.44
2023-07-09T16:06:36.660Z,94477.56
2023-07-09T16:09:07.128Z,94483.50
2023-07-09T16:11:38.121Z,94481.84
2023-07-09T16:14:18.233Z,94460.09
2023-07-09T16:16:52.255Z,94507.50
2023-07-09T16:19:22.931Z,94509.59
2023-07-09T16:22:12.322Z,94523.63
2023-07-09T16:24:40.424Z,94522.13
2023-07-09T16:27:15.524Z,94525.19
2023-07-09T16:29:43.688Z,94532.78
2023-07-09T16:32:12.182Z,94536.41
2023-07-09T16:34:42.543Z,94539.47
2023-07-09T16:37:21.589Z,94561.88
2023-07-09T16:39:49.988Z,94565.13
2023-07-09T16:42:18.343Z,94583.69
2023-07-09T16:45:11.720Z,94590.09
2023-07-09T16:51:53.620Z,94589.91
2023-07-09T16:54:22.033Z,94596.25
2023-07-09T16:56:54.689Z,94605.91
2023-07-09T16:59:23.823Z,94609.00
2023-07-09T17:01:52.363Z,94615.16
2023-07-09T17:04:28.487Z,94628.56
2023-07-09T17:06:57.583Z,94630.16
2023-07-09T17:09:25.725Z,94618.81
2023-07-09T17:11:59.159Z,94626.97
2023-07-09T17:14:27.503Z,94625.09
2023-07-09T17:16:56.461Z,94643.63
2023-07-09T17:19:24.982Z,94653.84
2023-07-09T17:21:56.042Z,94672.38
2023-07-09T17:24:26.638Z,94696.97
2023-07-09T17:26:59.210Z,94709.28
2023-07-09T17:29:27.277Z,94729.56
2023-07-09T17:31:55.706Z,94750.41
2023-07-09T17:34:24.113Z,94758.03
2023-07-09T17:36:55.205Z,94771.47
2023-07-09T17:39:25.373Z,94778.47
2023-07-09T17:41:54.024Z,94796.03
2023-07-09T17:44:24.795Z,94799.25
2023-07-09T17:46:55.338Z,94810.41
2023-07-09T17:49:29.360Z,94807.75
2023-07-09T17:51:59.558Z,94817.91
2023-07-09T17:54:30.082Z,94816.41
2023-07-09T17:56:58.769Z,94825.63
2023-07-09T17:59:32.163Z,94816.19
2023-07-09T18:02:15.035Z,94814.69
2023-07-09T18:04:43.450Z,94806.75
2023-07-09T18:07:29.557Z,94775.97
2023-07-09T18:09:59.106Z,94744.06
2023-07-09T18:12:29.513Z,94744.25
2023-07-09T18:14:59.245Z,94719.09
2023-07-09T18:17:36.474Z,94715.84
2023-07-09T18:20:14.919Z,94757.13
2023-07-09T18:22:43.287Z,94769.16
2023-07-09T18:25:12.247Z,94759.78
2023-07-09T18:27:44.749Z,94752.63
2023-07-09T18:30:22.994Z,94729.53
2023-07-09T18:32:56.317Z,94727.56
2023-07-09T18:35:27.637Z,94732.09
2023-07-09T18:38:02.263Z,94732.88
2023-07-09T18:40:34.137Z,94729.34
2023-07-09T18:43:03.707Z,94734.81
2023-07-09T18:45:31.637Z,94745.59
2023-07-09T18:48:00.522Z,94746.59
2023-07-09T18:50:31.083Z,94751.88
2023-07-09T18:53:00.823Z,94753.59
2023-07-09T18:55:30.645Z,94761.53
2023-07-09T18:58:14.673Z,94750.63
2023-07-09T19:00:42.827Z,94757.59
2023-07-09T19:03:19.557Z,94761.97
2023-07-09T19:05:48.380Z,94746.66
2023-07-09T19:08:28.292Z,94740.63
2023-07-09T19:10:57.226Z,94731.75
2023-07-09T19:13:29.359Z,94730.81
2023-07-09T19:16:00.204Z,94734.22
2023-07-09T19:18:34.722Z,94731.94
2023-07-09T19:21:04.522Z,94749.09
2023-07-09T19:23:33.873Z,94765.34
2023-07-09T19:26:02.438Z,94766.81
2023-07-09T19:28:31.131Z,94777.50
2023-07-09T19:30:59.432Z,94775.81
2023-07-09T19:33:37.111Z,94772.72
2023-07-09T19:36:23.301Z,94780.44
2023-07-09T19:38:53.612Z,94777.59
2023-07-09T19:41:23.536Z,94771.03
2023-07-09T19:43:52.255Z,94755.56
2023-07-09T19:46:29.934Z,94755.16
2023-07-09T19:48:58.433Z,94748.38
2023-07-09T19:51:26.416Z,94745.16
2023-07-09T19:53:55.006Z,94735.50
2023-07-09T19:56:22.856Z,94735.50
2023-07-09T19:58:53.088Z,94726.47
2023-07-09T20:01:22.056Z,94712.88
2023-07-09T20:03:50.450Z,94694.94
2023-07-09T20:06:18.511Z,94680.03
2023-07-09T20:08:47.365Z,94661.97
2023-07-09T20:11:15.315Z,94663.84
2023-07-09T20:13:44.269Z,94666.84
2023-07-09T20:16:30.321Z,94686.84
2023-07-09T20:19:00.190Z,94700.81
2023-07-09T20:21:28.827Z,94710.41
2023-07-09T20:23:57.602Z,94710.06
2023-07-09T20:26:25.777Z,94707.00
2023-07-09T20:28:54.171Z,94694.59
2023-07-09T20:31:25.761Z,94699.66
2023-07-09T20:34:11.808Z,94705.09
2023-07-09T20:36:40.171Z,94701.19
2023-07-09T20:39:20.750Z,94717.00
2023-07-09T20:41:52.477Z,94704.41
2023-07-09T20:44:24.438Z,94708.34
2023-07-09T20:46:53.093Z,94707.75
2023-07-09T20:49:28.683Z,94711.53
2023-07-09T20:51:57.011Z,94709.25
2023-07-09T20:54:25.475Z,94710.56
2023-07-09T20:56:57.849Z,94709.03
2023-07-09T20:59:28.761Z,94706.94
2023-07-09T21:01:56.911Z,94705.06
2023-07-09T21:04:25.580Z,94687.88
2023-07-09T21:06:54.302Z,94700.72
2023-07-09T21:09:31.656Z,94700.72
2023-07-09T21:11:59.968Z,94700.56
2023-07-09T21:14:28.641Z,94701.09
2023-07-09T21:17:01.307Z,94692.97
2023-07-09T21:19:34.082Z,94696.69
2023-07-09T21:22:04.401Z,94683.34
2023-07-09T21:24:39.283Z,94692.69
2023-07-09T21:27:08.684Z,94691.31
2023-07-09T21:29:37.377Z,94691.59
2023-07-09T21:32:21.182Z,94694.16
2023-07-09T21:34:53.539Z,94692.25
2023-07-09T21:37:23.370Z,94693.75
2023-07-09T21:39:52.219Z,94701.13
2023-07-09T21:42:20.344Z,94702.84
2023-07-09T21:44:48.623Z,94698.28
2023-07-09T21:47:19.377Z,94697.50
2023-07-09T21:49:48.000Z,94691.44
2023-07-09T21:52:22.507Z,94689.97
2023-07-09T21:57:24.108Z,94689.63
2023-07-09T21:59:52.577Z,94681.69
2023-07-09T22:02:25.084Z,94680.75
2023-07-09T22:04:55.641Z,94678.41
2023-07-09T22:07:25.883Z,94676.53
2023-07-09T22:09:56.047Z,94672.38
2023-07-09T22:12:24.371Z,94674.59
2023-07-09T22:14:58.819Z,94674.19
2023-07-09T22:17:27.543Z,94671.94
2023-07-09T22:19:58.543Z,94682.97
2023-07-09T22:22:31.382Z,94673.50
2023-07-09T22:25:00.671Z,94681.72
2023-07-09T22:27:29.454Z,94676.09
2023-07-09T22:29:58.106Z,94679.97
2023-07-09T22:32:32.251Z,94677.31
2023-07-09T22:35:03.959Z,94670.78
2023-07-09T22:37:33.797Z,94668.53
2023-07-09T22:40:32.033Z,94675.56
2023-07-09T22:43:00.764Z,94681.81
2023-07-09T22:45:30.957Z,94674.50
2023-07-09T22:48:00.950Z,94666.38
2023-07-09T22:50:32.614Z,94665.34
2023-07-09T22:53:01.098Z,94668.88
2023-07-09T22:55:36.579Z,94671.16
2023-07-09T22:58:09.084Z,94670.94
2023-07-09T23:00:39.805Z,94666.56
2023-07-09T23:03:18.212Z,94664.09
2023-07-09T23:05:47.963Z,94666.28
2023-07-09T23:08:24.898Z,94663.28
2023-07-09T23:10:58.427Z,94658.09
2023-07-09T23:13:30.476Z,94675.63
2023-07-09T23:16:02.799Z,94679.81
2023-07-09T23:18:32.124Z,94685.47
2023-07-09T23:21:04.337Z,94679.16
2023-07-09T23:23:32.565Z,94674.56
2023-07-09T23:26:01.009Z,94675.34
2023-07-09T23:28:29.236Z,94680.84
2023-07-09T23:31:01.930Z,94682.50
2023-07-09T23:33:32.982Z,94684.66
2023-07-09T23:36:03.366Z,94679.75
2023-07-09T23:38:33.537Z,94682.28
2023-07-09T23:41:02.626Z,94681.94
2023-07-09T23:43:41.868Z,94680.06
2023-07-09T23:46:13.189Z,94682.97
2023-07-09T23:48:46.731Z,94673.50
2023-07-09T23:51:17.614Z,94666.97
2023-07-09T23:53:45.560Z,94652.50
2023-07-09T23:56:19.903Z,94678.88
2023-07-09T23:58:48.093Z,94689.03
